• Join FlightAware (Why Join?)
  • Login
  • US Flag 
11:20PM EST


 

Airport Tracker/Info


-or-


 

Live Flight TrackerFlight Track Log ✈ KAP927 ✈ 16-May-2013 ✈ KALB - KOGS

Flight Track Log - Related Links

Times and Time Zones

All times are in EDT time to prevent confusion due to time zone crossing. See the KAP927 flight status page for this flight to view local times or setup timezone preferences in your user account.

Time Position Orientation Groundspeed Altitude Reporting Facility
EDT Latitude Longitude Course Direction KTS MPH feet Rate Location/Type
06:53PM 42.7686 -73.8656 331° Northwest 99 114 1,800  Level Boston Center
06:54PM 42.7956 -73.8861 331° Northwest 101 116 2,300 480 Climbing Boston Center
06:54PM 42.8119 -73.9061 318° Northwest 108 124 2,700 480 Climbing Boston Center
06:55PM 42.8389 -73.9267 331° Northwest 105 121 3,200 420 Climbing Boston Center
06:57PM 42.8636 -73.9497 326° Northwest 115 132 3,600 360 Climbing Boston Center
06:58PM 42.8903 -73.9675 334° Northwest 112 129 4,000 360 Climbing Boston Center
06:59PM 42.9214 -73.9939 328° Northwest 111 128 4,400 360 Climbing Boston Center
07:00PM 42.9481 -74.0144 331° Northwest 113 130 4,800 420 Climbing Boston Center
07:01PM 42.9747 -74.0378 327° Northwest 105 121 5,300 360 Climbing Boston Center
07:02PM 42.9997 -74.0556 333° Northwest 107 123 5,600 300 Climbing Boston Center
07:03PM 43.0264 -74.0761 331° Northwest 109 125 6,000 300 Climbing Boston Center
07:04PM 43.0511 -74.0967 329° Northwest 112 129 6,300 180 Climbing Boston Center
07:04PM 43.0614 -74.1025 337° Northwest 113 130 6,300 360 Level Boston Center
07:05PM 43.0778 -74.1200 322° Northwest 111 128 6,700 480 Climbing Boston Center
07:05PM 43.0842 -74.1231 341° North 113 130 6,800 360 Climbing Boston Center
07:06PM 43.1108 -74.1464 327° Northwest 121 139 7,200 480 Climbing Boston Center
07:07PM 43.1397 -74.1672 332° Northwest 116 133 7,800 540 Climbing Boston Center
07:08PM 43.1686 -74.1908 329° Northwest 116 133 8,300 360 Climbing Boston Center
07:09PM 43.1972 -74.2144 329° Northwest 121 139 8,600 360 Climbing Boston Center
07:10PM 43.2242 -74.2381 327° Northwest 121 139 9,100 600 Climbing Boston Center
07:11PM 43.2528 -74.2589 332° Northwest 121 139 9,800 600 Climbing Boston Center
07:12PM 43.2817 -74.2853 326° Northwest 121 139 10,300 300 Climbing Boston Center
07:13PM 43.3106 -74.3092 329° Northwest 121 139 10,400 60 Climbing Boston Center
07:14PM 43.3350 -74.3297 329° Northwest 126 145 10,500  Climbing Boston Center
07:15PM 43.3742 -74.3653 327° Northwest 126 145 10,500  Level Boston Center
07:16PM 43.4008 -74.3833 334° Northwest 126 145 10,600  Climbing Boston Center
07:17PM 43.4317 -74.4100 328° Northwest 126 145 10,600  Level Boston Center
07:18PM 43.4625 -74.4339 331° Northwest 120 138 10,600  Level Boston Center
07:19PM 43.4956 -74.4608 329° Northwest 127 146 10,600  Level Boston Center
07:20PM 43.5303 -74.4878 331° Northwest 132 152 10,600 -60 Level Boston Center
07:21PM 43.5611 -74.5144 328° Northwest 137 158 10,500  Descending Boston Center
07:22PM 43.5919 -74.5386 330° Northwest 137 158 10,600  Climbing Boston Center
07:23PM 43.6269 -74.5683 328° Northwest 132 152 10,600  Level Boston Center
07:24PM 43.6575 -74.5953 327° Northwest 132 152 10,600 -60 Level Boston Center
07:25PM 43.6864 -74.6194 329° Northwest 127 146 10,500  Descending Boston Center
07:26PM 43.7089 -74.6372 330° Northwest 121 139 10,600 -120 Climbing Boston Center
07:27PM 43.7458 -74.6644 332° Northwest 121 139 10,300 -600 Descending Boston Center
07:28PM 43.7808 -74.6947 328° Northwest 134 154 9,500 -780 Descending Boston Center
07:29PM 43.8239 -74.7278 331° Northwest 148 170 8,800 -660 Descending Boston Center
07:30PM 43.8669 -74.7642 329° Northwest 167 192 8,200 -600 Descending Boston Center
07:31PM 43.9081 -74.7944 332° Northwest 172 198 7,600 -600 Descending Boston Center
07:32PM 43.9508 -74.8336 327° Northwest 172 198 7,100 -540 Descending Boston Center
07:33PM 43.9919 -74.8669 330° Northwest 172 198 6,600 -540 Descending Boston Center
07:34PM 44.0308 -74.9003 328° Northwest 172 198 6,100 -420 Descending Boston Center
07:35PM 44.0697 -74.9339 328° Northwest 166 191 5,800 -300 Descending Boston Center
07:36PM 44.1064 -74.9642 329° Northwest 166 191 5,500 -300 Descending Boston Center
07:37PM 44.1372 -74.9917 327° Northwest 166 191 5,300 -300 Descending Boston Center
07:38PM 44.1844 -75.0256 333° Northwest 166 191 5,000 -360 Descending Boston Center
07:39PM 44.2192 -75.0531 330° Northwest 161 185 4,600 -360 Descending Boston Center
07:40PM 44.2558 -75.0836 329° Northwest 156 180 4,300 -360 Descending Boston Center
07:41PM 44.2928 -75.1144 329° Northwest 156 180 3,900 -360 Descending Boston Center
07:42PM 44.3297 -75.1392 334° Northwest 156 180 3,600 -300 Descending Boston Center
07:43PM 44.3644 -75.1697 328° Northwest 151 174 3,300 -300 Descending Boston Center
07:44PM 44.4014 -75.1947 334° Northwest 151 174 3,000 -300 Descending Boston Center